sensor_id;sensor_type;location;lat;lon;timestamp;pressure;altitude;pressure_sealevel;temperature;humidity
37904;BME280;23738;50.422;18.758;2022-10-16T00:02:00;98652.03;;;14.11;74.11
37904;BME280;23738;50.422;18.758;2022-10-16T00:04:26;98654.31;;;14.16;74.28
37904;BME280;23738;50.422;18.758;2022-10-16T00:06:52;98654.09;;;14.18;74.16
37904;BME280;23738;50.422;18.758;2022-10-16T00:09:17;98655.43;;;14.18;74.18
37904;BME280;23738;50.422;18.758;2022-10-16T00:11:43;98643.69;;;14.16;74.13
37904;BME280;23738;50.422;18.758;2022-10-16T00:14:12;98654.02;;;14.15;74.10
37904;BME280;23738;50.422;18.758;2022-10-16T00:16:39;98651.81;;;14.12;74.16
37904;BME280;23738;50.422;18.758;2022-10-16T00:19:05;98659.53;;;14.14;74.24
37904;BME280;23738;50.422;18.758;2022-10-16T00:21:32;98654.83;;;14.16;74.46
37904;BME280;23738;50.422;18.758;2022-10-16T00:24:01;98652.47;;;14.17;74.43
37904;BME280;23738;50.422;18.758;2022-10-16T00:26:31;98656.75;;;14.18;74.41
37904;BME280;23738;50.422;18.758;2022-10-16T00:28:58;98658.09;;;14.18;74.35
37904;BME280;23738;50.422;18.758;2022-10-16T00:31:24;98653.71;;;14.14;74.39
37904;BME280;23738;50.422;18.758;2022-10-16T00:33:50;98657.64;;;14.12;74.40
37904;BME280;23738;50.422;18.758;2022-10-16T00:36:19;98655.25;;;14.13;74.51
37904;BME280;23738;50.422;18.758;2022-10-16T00:38:52;98655.55;;;14.14;74.60
37904;BME280;23738;50.422;18.758;2022-10-16T00:41:21;98657.48;;;14.16;74.55
37904;BME280;23738;50.422;18.758;2022-10-16T00:43:54;98664.94;;;14.16;74.46
37904;BME280;23738;50.422;18.758;2022-10-16T00:46:37;98663.83;;;14.15;74.44
37904;BME280;23738;50.422;18.758;2022-10-16T00:49:12;98660.00;;;14.11;74.38
37904;BME280;23738;50.422;18.758;2022-10-16T00:51:50;98662.17;;;14.05;74.37
37904;BME280;23738;50.422;18.758;2022-10-16T00:54:17;98655.69;;;14.01;74.48
37904;BME280;23738;50.422;18.758;2022-10-16T00:56:44;98664.26;;;14.03;74.64
37904;BME280;23738;50.422;18.758;2022-10-16T00:59:18;98657.73;;;13.99;74.29
37904;BME280;23738;50.422;18.758;2022-10-16T01:01:45;98663.45;;;14.02;74.50
37904;BME280;23738;50.422;18.758;2022-10-16T01:04:11;98661.21;;;13.99;74.43
37904;BME280;23738;50.422;18.758;2022-10-16T01:10:02;98662.97;;;13.87;74.47
37904;BME280;23738;50.422;18.758;2022-10-16T01:12:49;98656.54;;;13.86;74.58
37904;BME280;23738;50.422;18.758;2022-10-16T01:15:47;98665.23;;;13.84;74.64
37904;BME280;23738;50.422;18.758;2022-10-16T01:18:43;98656.09;;;13.79;74.60
37904;BME280;23738;50.422;18.758;2022-10-16T01:21:33;98658.73;;;13.79;74.50
37904;BME280;23738;50.422;18.758;2022-10-16T01:29:59;98655.45;;;13.68;74.79
37904;BME280;23738;50.422;18.758;2022-10-16T01:32:36;98660.15;;;13.66;74.69
37904;BME280;23738;50.422;18.758;2022-10-16T01:35:11;98658.45;;;13.63;74.66
37904;BME280;23738;50.422;18.758;2022-10-16T01:37:57;98655.92;;;13.59;74.66
37904;BME280;23738;50.422;18.758;2022-10-16T01:40:27;98660.86;;;13.55;74.65
37904;BME280;23738;50.422;18.758;2022-10-16T01:42:56;98663.63;;;13.51;74.78
37904;BME280;23738;50.422;18.758;2022-10-16T01:45:30;98663.63;;;13.51;74.78
37904;BME280;23738;50.422;18.758;2022-10-16T01:48:00;98667.31;;;13.50;74.91
37904;BME280;23738;50.422;18.758;2022-10-16T01:50:28;98671.69;;;13.54;74.80
37904;BME280;23738;50.422;18.758;2022-10-16T01:52:56;98671.69;;;13.54;74.80
37904;BME280;23738;50.422;18.758;2022-10-16T01:55:29;98668.13;;;13.51;74.84
37904;BME280;23738;50.422;18.758;2022-10-16T01:57:59;98674.45;;;13.50;74.83
37904;BME280;23738;50.422;18.758;2022-10-16T02:00:27;98673.63;;;13.40;74.86
37904;BME280;23738;50.422;18.758;2022-10-16T02:02:54;98680.84;;;13.42;74.81
37904;BME280;23738;50.422;18.758;2022-10-16T02:05:32;98682.16;;;13.42;74.64
37904;BME280;23738;50.422;18.758;2022-10-16T02:07:56;98682.16;;;13.42;74.64
37904;BME280;23738;50.422;18.758;2022-10-16T02:10:23;98697.27;;;13.41;74.77
37904;BME280;23738;50.422;18.758;2022-10-16T02:12:56;98692.91;;;13.38;74.81
37904;BME280;23738;50.422;18.758;2022-10-16T02:15:36;98692.52;;;13.34;74.86
37904;BME280;23738;50.422;18.758;2022-10-16T02:18:04;98691.13;;;13.32;74.93
37904;BME280;23738;50.422;18.758;2022-10-16T02:20:34;98699.15;;;13.34;75.06
37904;BME280;23738;50.422;18.758;2022-10-16T02:23:07;98686.49;;;13.36;75.03
37904;BME280;23738;50.422;18.758;2022-10-16T02:25:37;98688.16;;;13.31;75.19
37904;BME280;23738;50.422;18.758;2022-10-16T02:28:17;98688.16;;;13.31;75.19
37904;BME280;23738;50.422;18.758;2022-10-16T02:31:01;98686.23;;;13.29;75.10
37904;BME280;23738;50.422;18.758;2022-10-16T02:33:30;98685.62;;;13.27;75.24
37904;BME280;23738;50.422;18.758;2022-10-16T02:35:57;98688.58;;;13.28;75.41
37904;BME280;23738;50.422;18.758;2022-10-16T02:38:24;98686.53;;;13.30;75.41
37904;BME280;23738;50.422;18.758;2022-10-16T02:40:51;98689.19;;;13.30;75.48
37904;BME280;23738;50.422;18.758;2022-10-16T02:43:17;98682.97;;;13.27;75.45
37904;BME280;23738;50.422;18.758;2022-10-16T02:45:43;98685.31;;;13.26;75.46
37904;BME280;23738;50.422;18.758;2022-10-16T02:48:09;98684.03;;;13.19;75.53
37904;BME280;23738;50.422;18.758;2022-10-16T02:50:35;98686.89;;;13.18;75.84
37904;BME280;23738;50.422;18.758;2022-10-16T02:53:01;98693.02;;;13.18;75.91
37904;BME280;23738;50.422;18.758;2022-10-16T02:55:27;98691.48;;;13.20;75.89
37904;BME280;23738;50.422;18.758;2022-10-16T02:57:53;98692.30;;;13.20;75.90
37904;BME280;23738;50.422;18.758;2022-10-16T03:00:20;98701.78;;;13.19;75.88
37904;BME280;23738;50.422;18.758;2022-10-16T03:02:46;98698.55;;;13.17;75.82
37904;BME280;23738;50.422;18.758;2022-10-16T03:05:13;98696.11;;;13.15;75.72
37904;BME280;23738;50.422;18.758;2022-10-16T03:07:39;98696.31;;;13.14;75.97
37904;BME280;23738;50.422;18.758;2022-10-16T03:10:06;98697.94;;;13.15;76.16
37904;BME280;23738;50.422;18.758;2022-10-16T03:12:32;98703.86;;;13.17;76.15
37904;BME280;23738;50.422;18.758;2022-10-16T03:14:58;98707.70;;;13.21;76.15
37904;BME280;23738;50.422;18.758;2022-10-16T03:17:24;98704.03;;;13.22;76.12
37904;BME280;23738;50.422;18.758;2022-10-16T03:19:51;98703.41;;;13.20;76.06
37904;BME280;23738;50.422;18.758;2022-10-16T03:22:16;98711.81;;;13.17;76.11
37904;BME280;23738;50.422;18.758;2022-10-16T03:24:42;98707.84;;;13.17;76.21
37904;BME280;23738;50.422;18.758;2022-10-16T03:27:08;98711.38;;;13.20;76.35
37904;BME280;23738;50.422;18.758;2022-10-16T03:29:34;98717.29;;;13.22;76.40
37904;BME280;23738;50.422;18.758;2022-10-16T03:32:00;98715.25;;;13.24;76.39
37904;BME280;23738;50.422;18.758;2022-10-16T03:34:26;98717.90;;;13.24;76.33
37904;BME280;23738;50.422;18.758;2022-10-16T03:36:52;98727.70;;;13.23;76.30
37904;BME280;23738;50.422;18.758;2022-10-16T03:39:18;98722.80;;;13.20;76.26
37904;BME280;23738;50.422;18.758;2022-10-16T03:41:44;98726.27;;;13.21;76.31
37904;BME280;23738;50.422;18.758;2022-10-16T03:44:12;98729.22;;;13.22;76.35
37904;BME280;23738;50.422;18.758;2022-10-16T03:46:38;98720.86;;;13.25;76.33
37904;BME280;23738;50.422;18.758;2022-10-16T03:49:03;98720.86;;;13.25;76.33
37904;BME280;23738;50.422;18.758;2022-10-16T03:51:29;98719.73;;;13.23;76.28
37904;BME280;23738;50.422;18.758;2022-10-16T03:53:55;98716.88;;;13.18;76.27
37904;BME280;23738;50.422;18.758;2022-10-16T03:56:20;98712.23;;;13.14;76.34
37904;BME280;23738;50.422;18.758;2022-10-16T03:58:46;98724.47;;;13.15;76.44
37904;BME280;23738;50.422;18.758;2022-10-16T04:01:12;98719.77;;;13.17;76.61
37904;BME280;23738;50.422;18.758;2022-10-16T04:03:38;98725.45;;;13.20;76.62
37904;BME280;23738;50.422;18.758;2022-10-16T04:06:04;98728.10;;;13.20;76.56
37904;BME280;23738;50.422;18.758;2022-10-16T04:08:29;98730.96;;;13.19;76.63
37904;BME280;23738;50.422;18.758;2022-10-16T04:10:55;98734.13;;;13.18;76.59
37904;BME280;23738;50.422;18.758;2022-10-16T04:13:21;98741.78;;;13.17;76.59
37904;BME280;23738;50.422;18.758;2022-10-16T04:15:47;98739.66;;;13.17;76.71
37904;BME280;23738;50.422;18.758;2022-10-16T04:18:12;98735.45;;;13.18;76.86
37904;BME280;23738;50.422;18.758;2022-10-16T04:20:38;98735.75;;;13.19;76.91
37904;BME280;23738;50.422;18.758;2022-10-16T04:23:04;98730.75;;;13.20;76.90
37904;BME280;23738;50.422;18.758;2022-10-16T04:25:30;98731.58;;;13.21;76.88
37904;BME280;23738;50.422;18.758;2022-10-16T04:27:56;98725.59;;;13.16;76.82
37904;BME280;23738;50.422;18.758;2022-10-16T04:30:22;98724.54;;;13.11;76.80
37904;BME280;23738;50.422;18.758;2022-10-16T04:32:49;98727.94;;;13.09;76.91
37904;BME280;23738;50.422;18.758;2022-10-16T04:35:17;98729.54;;;13.10;77.04
37904;BME280;23738;50.422;18.758;2022-10-16T04:37:44;98734.13;;;13.12;76.87
37904;BME280;23738;50.422;18.758;2022-10-16T04:40:10;98738.41;;;13.13;76.78
37904;BME280;23738;50.422;18.758;2022-10-16T04:42:36;98724.54;;;13.11;76.65
37904;BME280;23738;50.422;18.758;2022-10-16T04:45:03;98733.65;;;13.06;76.62
37904;BME280;23738;50.422;18.758;2022-10-16T04:47:30;98745.92;;;13.00;76.59
37904;BME280;23738;50.422;18.758;2022-10-16T04:49:55;98754.28;;;12.97;76.66
37904;BME280;23738;50.422;18.758;2022-10-16T04:52:22;98747.85;;;12.95;76.64
37904;BME280;23738;50.422;18.758;2022-10-16T04:54:50;98747.55;;;12.94;76.61
37904;BME280;23738;50.422;18.758;2022-10-16T04:57:16;98745.33;;;12.91;76.50
37904;BME280;23738;50.422;18.758;2022-10-16T04:59:42;98753.19;;;12.89;76.43
37904;BME280;23738;50.422;18.758;2022-10-16T05:02:08;98757.06;;;12.86;76.48
37904;BME280;23738;50.422;18.758;2022-10-16T05:04:34;98746.14;;;12.85;76.44
37904;BME280;23738;50.422;18.758;2022-10-16T05:07:00;98751.37;;;12.83;76.52
37904;BME280;23738;50.422;18.758;2022-10-16T05:09:26;98756.75;;;12.85;76.67
37904;BME280;23738;50.422;18.758;2022-10-16T05:11:52;98763.48;;;12.88;76.74
37904;BME280;23738;50.422;18.758;2022-10-16T05:14:18;98763.59;;;12.90;76.82
37904;BME280;23738;50.422;18.758;2022-10-16T05:16:44;98761.95;;;12.89;76.87
37904;BME280;23738;50.422;18.758;2022-10-16T05:19:09;98762.56;;;12.91;76.88
37904;BME280;23738;50.422;18.758;2022-10-16T05:21:35;98769.09;;;12.89;76.92
37904;BME280;23738;50.422;18.758;2022-10-16T05:24:01;98769.70;;;12.91;77.14
37904;BME280;23738;50.422;18.758;2022-10-16T05:26:27;98771.03;;;12.91;77.28
37904;BME280;23738;50.422;18.758;2022-10-16T05:28:53;98774.67;;;12.96;77.42
37904;BME280;23738;50.422;18.758;2022-10-16T05:31:19;98771.69;;;13.02;77.46
37904;BME280;23738;50.422;18.758;2022-10-16T05:33:44;98773.25;;;13.00;77.41
37904;BME280;23738;50.422;18.758;2022-10-16T05:36:10;98779.95;;;13.03;77.41
37904;BME280;23738;50.422;18.758;2022-10-16T05:38:37;98773.77;;;13.00;77.57
37904;BME280;23738;50.422;18.758;2022-10-16T05:41:04;98787.61;;;13.02;77.67
37904;BME280;23738;50.422;18.758;2022-10-16T05:43:31;98790.67;;;13.06;77.79
37904;BME280;23738;50.422;18.758;2022-10-16T05:46:04;98784.22;;;13.11;77.92
37904;BME280;23738;50.422;18.758;2022-10-16T05:48:27;98791.59;;;13.15;77.87
37904;BME280;23738;50.422;18.758;2022-10-16T05:51:01;98800.23;;;13.20;77.88
37904;BME280;23738;50.422;18.758;2022-10-16T05:53:30;98802.89;;;13.20;77.86
37904;BME280;23738;50.422;18.758;2022-10-16T05:55:57;98808.19;;;13.20;77.81
37904;BME280;23738;50.422;18.758;2022-10-16T05:58:23;98811.33;;;13.26;78.04
37904;BME280;23738;50.422;18.758;2022-10-16T06:01:02;98813.27;;;13.28;78.13
37904;BME280;23738;50.422;18.758;2022-10-16T06:03:29;98812.42;;;13.34;78.15
37904;BME280;23738;50.422;18.758;2022-10-16T06:05:56;98813.84;;;13.36;78.09
37904;BME280;23738;50.422;18.758;2022-10-16T06:08:22;98816.30;;;13.38;78.06
37904;BME280;23738;50.422;18.758;2022-10-16T06:10:59;98816.30;;;13.38;78.06
37904;BME280;23738;50.422;18.758;2022-10-16T06:13:27;98818.52;;;13.41;78.14
37904;BME280;23738;50.422;18.758;2022-10-16T06:15:56;98824.53;;;13.46;78.17
37904;BME280;23738;50.422;18.758;2022-10-16T06:18:22;98821.84;;;13.52;78.31
37904;BME280;23738;50.422;18.758;2022-10-16T06:20:48;98827.12;;;13.59;78.39
37904;BME280;23738;50.422;18.758;2022-10-16T06:23:14;98820.68;;;13.64;78.31
37904;BME280;23738;50.422;18.758;2022-10-16T06:25:40;98832.19;;;13.67;78.24
37904;BME280;23738;50.422;18.758;2022-10-16T06:28:05;98834.63;;;13.68;78.17
37904;BME280;23738;50.422;18.758;2022-10-16T06:30:31;98832.59;;;13.70;78.22
37904;BME280;23738;50.422;18.758;2022-10-16T06:32:57;98827.65;;;13.74;78.20
37904;BME280;23738;50.422;18.758;2022-10-16T06:35:22;98841.43;;;13.80;78.35
37904;BME280;23738;50.422;18.758;2022-10-16T06:37:49;98839.34;;;13.89;78.34
37904;BME280;23738;50.422;18.758;2022-10-16T06:40:15;98850.30;;;13.99;78.38
37904;BME280;23738;50.422;18.758;2022-10-16T06:42:41;98850.25;;;14.05;78.25
37904;BME280;23738;50.422;18.758;2022-10-16T06:45:08;98847.69;;;14.08;78.16
37904;BME280;23738;50.422;18.758;2022-10-16T06:47:34;98852.70;;;14.07;78.13
37904;BME280;23738;50.422;18.758;2022-10-16T06:50:00;98856.88;;;14.12;78.19
37904;BME280;23738;50.422;18.758;2022-10-16T06:52:28;98855.41;;;14.16;78.20
37904;BME280;23738;50.422;18.758;2022-10-16T06:54:54;98850.19;;;14.18;78.15
37904;BME280;23738;50.422;18.758;2022-10-16T06:57:19;98846.87;;;14.23;78.08
37904;BME280;23738;50.422;18.758;2022-10-16T06:59:45;98851.83;;;14.29;78.03
37904;BME280;23738;50.422;18.758;2022-10-16T07:02:11;98851.11;;;14.31;77.84
37904;BME280;23738;50.422;18.758;2022-10-16T07:04:37;98855.81;;;14.29;77.83
37904;BME280;23738;50.422;18.758;2022-10-16T07:07:02;98852.70;;;14.23;77.87
37904;BME280;23738;50.422;18.758;2022-10-16T07:09:28;98858.66;;;14.34;77.96
37904;BME280;23738;50.422;18.758;2022-10-16T07:11:54;98863.30;;;14.45;77.94
37904;BME280;23738;50.422;18.758;2022-10-16T07:14:21;98868.68;;;14.63;77.80
37904;BME280;23738;50.422;18.758;2022-10-16T07:16:47;98874.23;;;14.71;77.77
37904;BME280;23738;50.422;18.758;2022-10-16T07:19:14;98870.16;;;14.84;77.77
37904;BME280;23738;50.422;18.758;2022-10-16T07:21:42;98874.23;;;14.96;77.73
37904;BME280;23738;50.422;18.758;2022-10-16T07:24:13;98867.38;;;15.06;77.66
37904;BME280;23738;50.422;18.758;2022-10-16T07:26:42;98869.24;;;15.15;77.52
37904;BME280;23738;50.422;18.758;2022-10-16T07:29:12;98869.55;;;15.16;77.28
37904;BME280;23738;50.422;18.758;2022-10-16T07:31:40;98873.80;;;15.17;77.22
37904;BME280;23738;50.422;18.758;2022-10-16T07:34:06;98877.80;;;15.17;77.07
37904;BME280;23738;50.422;18.758;2022-10-16T07:36:32;98882.91;;;15.18;77.14
37904;BME280;23738;50.422;18.758;2022-10-16T07:38:57;98883.60;;;15.32;77.18
37904;BME280;23738;50.422;18.758;2022-10-16T07:41:23;98888.55;;;15.47;76.98
37904;BME280;23738;50.422;18.758;2022-10-16T07:43:52;98881.90;;;15.65;76.98
37904;BME280;23738;50.422;18.758;2022-10-16T07:46:20;98887.38;;;15.88;76.78
37904;BME280;23738;50.422;18.758;2022-10-16T07:48:47;98884.82;;;16.02;76.50
37904;BME280;23738;50.422;18.758;2022-10-16T07:51:16;98883.73;;;16.13;76.53
37904;BME280;23738;50.422;18.758;2022-10-16T07:53:43;98881.72;;;16.26;76.24
37904;BME280;23738;50.422;18.758;2022-10-16T07:56:09;98886.25;;;16.37;76.39
37904;BME280;23738;50.422;18.758;2022-10-16T07:58:36;98884.30;;;16.44;76.23
37904;BME280;23738;50.422;18.758;2022-10-16T08:01:04;98891.07;;;16.59;76.15
37904;BME280;23738;50.422;18.758;2022-10-16T08:03:31;98887.95;;;16.82;75.87
37904;BME280;23738;50.422;18.758;2022-10-16T08:05:58;98895.61;;;17.14;75.49
37904;BME280;23738;50.422;18.758;2022-10-16T08:08:24;98889.27;;;17.29;75.17
37904;BME280;23738;50.422;18.758;2022-10-16T08:10:50;98890.64;;;17.43;75.02
37904;BME280;23738;50.422;18.758;2022-10-16T08:13:17;98897.20;;;17.62;75.12
37904;BME280;23738;50.422;18.758;2022-10-16T08:15:43;98896.27;;;17.82;74.66
37904;BME280;23738;50.422;18.758;2022-10-16T08:18:12;98894.91;;;17.93;74.24
37904;BME280;23738;50.422;18.758;2022-10-16T08:20:40;98892.77;;;17.93;73.71
37904;BME280;23738;50.422;18.758;2022-10-16T08:23:06;98906.94;;;17.93;73.56
37904;BME280;23738;50.422;18.758;2022-10-16T08:25:36;98907.92;;;17.90;72.43
37904;BME280;23738;50.422;18.758;2022-10-16T08:28:07;98911.34;;;17.88;72.65
37904;BME280;23738;50.422;18.758;2022-10-16T08:30:34;98910.80;;;17.86;72.39
37904;BME280;23738;50.422;18.758;2022-10-16T08:33:00;98912.36;;;17.84;72.41
37904;BME280;23738;50.422;18.758;2022-10-16T08:35:27;98913.99;;;17.85;72.63
37904;BME280;23738;50.422;18.758;2022-10-16T08:37:52;98916.52;;;17.92;72.16
37904;BME280;23738;50.422;18.758;2022-10-16T08:40:29;98906.13;;;17.93;72.00
37904;BME280;23738;50.422;18.758;2022-10-16T08:46:25;98915.56;;;18.12;71.60
37904;BME280;23738;50.422;18.758;2022-10-16T08:48:57;98909.93;;;18.40;71.36
37904;BME280;23738;50.422;18.758;2022-10-16T08:51:27;98910.00;;;18.73;71.11
37904;BME280;23738;50.422;18.758;2022-10-16T08:54:05;98913.80;;;18.77;69.99
37904;BME280;23738;50.422;18.758;2022-10-16T08:56:34;98917.17;;;18.70;70.49
37904;BME280;23738;50.422;18.758;2022-10-16T08:59:00;98923.86;;;18.70;70.69
37904;BME280;23738;50.422;18.758;2022-10-16T09:01:44;98918.51;;;18.70;70.83
37904;BME280;23738;50.422;18.758;2022-10-16T09:04:27;98923.44;;;18.76;70.31
37904;BME280;23738;50.422;18.758;2022-10-16T09:09:43;98924.84;;;18.81;70.27
37904;BME280;23738;50.422;18.758;2022-10-16T09:12:36;98925.09;;;18.79;69.95
37904;BME280;23738;50.422;18.758;2022-10-16T09:15:11;98915.64;;;18.74;69.92
37904;BME280;23738;50.422;18.758;2022-10-16T09:18:11;98918.84;;;18.73;69.67
37904;BME280;23738;50.422;18.758;2022-10-16T09:23:26;98920.58;;;18.65;69.35
37904;BME280;23738;50.422;18.758;2022-10-16T09:25:55;98923.84;;;18.67;70.05
37904;BME280;23738;50.422;18.758;2022-10-16T09:28:21;98926.83;;;18.71;69.56
37904;BME280;23738;50.422;18.758;2022-10-16T09:30:48;98927.47;;;18.78;69.34
37904;BME280;23738;50.422;18.758;2022-10-16T09:33:16;98931.61;;;18.86;69.12
37904;BME280;23738;50.422;18.758;2022-10-16T09:35:45;98936.48;;;18.89;68.65
37904;BME280;23738;50.422;18.758;2022-10-16T09:38:32;98931.95;;;18.89;68.39
37904;BME280;23738;50.422;18.758;2022-10-16T09:40:58;98925.33;;;18.94;68.21
37904;BME280;23738;50.422;18.758;2022-10-16T09:43:39;98925.14;;;18.98;68.24
37904;BME280;23738;50.422;18.758;2022-10-16T09:46:19;98928.13;;;19.02;68.18
37904;BME280;23738;50.422;18.758;2022-10-16T09:48:51;98939.81;;;19.13;68.08
37904;BME280;23738;50.422;18.758;2022-10-16T09:51:23;98940.11;;;19.16;68.13
37904;BME280;23738;50.422;18.758;2022-10-16T09:56:34;98937.88;;;19.27;67.49
37904;BME280;23738;50.422;18.758;2022-10-16T09:59:13;98938.80;;;19.35;67.78
37904;BME280;23738;50.422;18.758;2022-10-16T10:04:19;98946.13;;;19.59;67.53
37904;BME280;23738;50.422;18.758;2022-10-16T10:06:49;98934.42;;;19.65;67.14
37904;BME280;23738;50.422;18.758;2022-10-16T10:09:49;98941.48;;;19.71;67.01
37904;BME280;23738;50.422;18.758;2022-10-16T10:12:14;98940.15;;;19.71;66.87
37904;BME280;23738;50.422;18.758;2022-10-16T10:14:49;98941.48;;;19.71;66.84
37904;BME280;23738;50.422;18.758;2022-10-16T10:17:21;98940.63;;;19.68;66.57
37904;BME280;23738;50.422;18.758;2022-10-16T10:19:57;98941.87;;;19.61;66.07
37904;BME280;23738;50.422;18.758;2022-10-16T10:22:44;98947.90;;;19.51;66.02
37904;BME280;23738;50.422;18.758;2022-10-16T10:28:18;98954.55;;;19.32;66.09
37904;BME280;23738;50.422;18.758;2022-10-16T10:31:16;98939.46;;;19.26;65.94
37904;BME280;23738;50.422;18.758;2022-10-16T10:33:59;98949.25;;;19.18;65.73
37904;BME280;23738;50.422;18.758;2022-10-16T10:36:41;98952.14;;;19.14;65.83
37904;BME280;23738;50.422;18.758;2022-10-16T10:39:25;98955.59;;;19.11;65.98
37904;BME280;23738;50.422;18.758;2022-10-16T10:42:16;98956.11;;;19.11;65.89
37904;BME280;23738;50.422;18.758;2022-10-16T10:45:21;98952.69;;;19.16;66.28
37904;BME280;23738;50.422;18.758;2022-10-16T10:48:06;98956.52;;;19.20;65.68
37904;BME280;23738;50.422;18.758;2022-10-16T10:50:42;98958.72;;;19.23;65.71
37904;BME280;23738;50.422;18.758;2022-10-16T10:53:34;98962.27;;;19.28;65.82
37904;BME280;23738;50.422;18.758;2022-10-16T10:56:27;98958.61;;;19.34;65.81
37904;BME280;23738;50.422;18.758;2022-10-16T11:00:01;98966.41;;;19.36;65.61
37904;BME280;23738;50.422;18.758;2022-10-16T11:08:00;98948.24;;;19.40;65.51
37904;BME280;23738;50.422;18.758;2022-10-16T11:10:40;98955.75;;;19.41;65.27
37904;BME280;23738;50.422;18.758;2022-10-16T11:13:59;98952.55;;;19.41;65.16
37904;BME280;23738;50.422;18.758;2022-10-16T11:15:54;98956.27;;;19.38;65.22
37904;BME280;23738;50.422;18.758;2022-10-16T11:18:27;98957.31;;;19.37;65.09
37904;BME280;23738;50.422;18.758;2022-10-16T11:21:10;98960.56;;;19.39;65.14
37904;BME280;23738;50.422;18.758;2022-10-16T11:23:50;98952.92;;;19.47;65.29
37904;BME280;23738;50.422;18.758;2022-10-16T11:26:36;98956.00;;;19.56;65.34
37904;BME280;23738;50.422;18.758;2022-10-16T11:29:10;98946.29;;;19.72;65.09
37904;BME280;23738;50.422;18.758;2022-10-16T11:31:52;98946.08;;;19.95;65.10
37904;BME280;23738;50.422;18.758;2022-10-16T11:37:17;98950.41;;;20.23;64.88
37904;BME280;23738;50.422;18.758;2022-10-16T11:39:54;98950.56;;;20.36;64.75
37904;BME280;23738;50.422;18.758;2022-10-16T11:45:42;98945.73;;;20.62;64.25
37904;BME280;23738;50.422;18.758;2022-10-16T11:47:51;98945.87;;;20.75;63.94
37904;BME280;23738;50.422;18.758;2022-10-16T11:53:48;98949.14;;;20.82;63.65
37904;BME280;23738;50.422;18.758;2022-10-16T11:56:14;98956.53;;;20.67;63.45
37904;BME280;23738;50.422;18.758;2022-10-16T11:58:48;98963.84;;;20.47;62.91
37904;BME280;23738;50.422;18.758;2022-10-16T12:01:40;98968.70;;;20.29;62.92
37904;BME280;23738;50.422;18.758;2022-10-16T12:04:33;98972.63;;;20.18;62.49
37904;BME280;23738;50.422;18.758;2022-10-16T12:07:23;98976.91;;;20.19;62.92
37904;BME280;23738;50.422;18.758;2022-10-16T12:09:50;98971.91;;;20.28;62.78
37904;BME280;23738;50.422;18.758;2022-10-16T12:15:27;98974.94;;;20.56;62.36
37904;BME280;23738;50.422;18.758;2022-10-16T12:17:55;98973.91;;;20.62;62.36
37904;BME280;23738;50.422;18.758;2022-10-16T12:20:33;98964.94;;;20.78;62.53
37904;BME280;23738;50.422;18.758;2022-10-16T12:23:05;98964.27;;;20.93;62.43
37904;BME280;23738;50.422;18.758;2022-10-16T12:25:37;98956.27;;;21.00;62.31
37904;BME280;23738;50.422;18.758;2022-10-16T12:31:05;98961.50;;;21.15;61.86
37904;BME280;23738;50.422;18.758;2022-10-16T12:33:36;98967.55;;;21.32;62.00
37904;BME280;23738;50.422;18.758;2022-10-16T12:36:07;98966.30;;;21.47;60.75
37904;BME280;23738;50.422;18.758;2022-10-16T12:38:49;98966.38;;;21.55;61.34
37904;BME280;23738;50.422;18.758;2022-10-16T12:41:28;98969.66;;;21.67;60.98
37904;BME280;23738;50.422;18.758;2022-10-16T12:43:59;98967.52;;;21.71;61.05
37904;BME280;23738;50.422;18.758;2022-10-16T12:46:39;98976.09;;;21.66;61.04
37904;BME280;23738;50.422;18.758;2022-10-16T12:49:29;98969.67;;;21.69;60.94
37904;BME280;23738;50.422;18.758;2022-10-16T12:51:55;98970.46;;;21.67;60.88
37904;BME280;23738;50.422;18.758;2022-10-16T12:54:30;98970.42;;;21.60;61.03
37904;BME280;23738;50.422;18.758;2022-10-16T13:00:23;98982.05;;;21.70;60.82
37904;BME280;23738;50.422;18.758;2022-10-16T13:03:20;98980.25;;;21.86;60.89
37904;BME280;23738;50.422;18.758;2022-10-16T13:08:58;98986.25;;;21.54;60.09
37904;BME280;23738;50.422;18.758;2022-10-16T13:17:16;98983.59;;;20.92;59.97
37904;BME280;23738;50.422;18.758;2022-10-16T13:20:15;98979.11;;;20.71;60.09
37904;BME280;23738;50.422;18.758;2022-10-16T13:23:17;98984.37;;;20.61;60.29
37904;BME280;23738;50.422;18.758;2022-10-16T13:28:33;98992.05;;;20.50;60.77
37904;BME280;23738;50.422;18.758;2022-10-16T13:31:01;98986.94;;;20.48;60.94
37904;BME280;23738;50.422;18.758;2022-10-16T13:33:35;98985.31;;;20.47;61.02
37904;BME280;23738;50.422;18.758;2022-10-16T13:36:04;98980.75;;;20.48;61.20
37904;BME280;23738;50.422;18.758;2022-10-16T13:38:34;98984.17;;;20.43;61.05
37904;BME280;23738;50.422;18.758;2022-10-16T13:41:11;98981.16;;;20.35;60.98
37904;BME280;23738;50.422;18.758;2022-10-16T13:43:52;98973.33;;;20.33;60.92
37904;BME280;23738;50.422;18.758;2022-10-16T13:46:23;98977.22;;;20.42;61.04
37904;BME280;23738;50.422;18.758;2022-10-16T13:49:00;98974.61;;;20.50;60.74
37904;BME280;23738;50.422;18.758;2022-10-16T13:51:30;98969.00;;;20.54;60.64
37904;BME280;23738;50.422;18.758;2022-10-16T13:53:57;98968.52;;;20.59;60.82
37904;BME280;23738;50.422;18.758;2022-10-16T13:56:26;98973.38;;;20.62;60.90
37904;BME280;23738;50.422;18.758;2022-10-16T13:59:01;98977.41;;;20.62;61.18
37904;BME280;23738;50.422;18.758;2022-10-16T14:01:34;98993.02;;;20.66;61.08
37904;BME280;23738;50.422;18.758;2022-10-16T14:04:04;98995.98;;;20.67;60.97
37904;BME280;23738;50.422;18.758;2022-10-16T14:06:36;99010.23;;;20.70;60.93
37904;BME280;23738;50.422;18.758;2022-10-16T14:12:02;99012.63;;;20.69;60.73
37904;BME280;23738;50.422;18.758;2022-10-16T14:14:40;99017.99;;;20.69;60.71
37904;BME280;23738;50.422;18.758;2022-10-16T14:19:49;99008.36;;;20.70;61.06